Runo — EFGQ — position and weather

sailwx.info

Track history (hours):
 
Tides and Currents Weather Stations Pressure Air Temp Water Temp Dewpoint Dewpoint Depression Visibility Wind Speed Wind Dir Waves Ship Positions

Runo

Last reported at 2016-Jun-16 01:26 UTC. Time now 2016-Jun-25 05:21 UTC.
Position N 09°07' W 079°47'.
Warning: this ship's position is 9 days out of date.

Length 30 m; draft 4 m.

Type: Fishing. MMSI: 224544160.

Date/timePositionNaut miles runAvg speedWind from/ knotsBaromVisibWave heightAir tempDewpointWater temp
2016-Jun-16 01:26N 09°07' W 079°47'7 8.4
2016-Jun-16 00:33N 09°11' W 079°53'6 5.8
2016-Jun-15 23:33N 09°16' W 079°55'0 0.4
2016-Jun-15 22:33N 09°17' W 079°55'2 2.2
2016-Jun-15 21:33N 09°19' W 079°55'4 3.6
2016-Jun-15 20:33N 09°22' W 079°54'0 0.0
2016-Jun-15 19:33N 09°22' W 079°54'0 0.0
2016-Jun-15 18:33N 09°22' W 079°54'0 0.0
2016-Jun-15 17:33N 09°22' W 079°54'0 0.0
2016-Jun-15 16:33N 09°22' W 079°54'0 0.0
2016-Jun-15 15:33N 09°22' W 079°54'0 0.0
2016-Jun-15 14:33N 09°22' W 079°54'0 0.0
2016-Jun-15 13:33N 09°22' W 079°55'0 0.0
2016-Jun-15 12:33N 09°22' W 079°55'0 0.0
2016-Jun-15 11:33N 09°22' W 079°54'0 0.0
2016-Jun-15 10:33N 09°22' W 079°54'0 0.0
2016-Jun-15 09:33N 09°22' W 079°55'0 0.0
2016-Jun-15 08:33N 09°22' W 079°54'0 0.0
2016-Jun-15 07:33N 09°22' W 079°54'0 0.0
2016-Jun-15 06:33N 09°22' W 079°55'0 0.0
2016-Jun-15 05:33N 09°22' W 079°55'0 0.0
2016-Jun-15 04:33N 09°22' W 079°54'0 0.0
2016-Jun-15 03:33N 09°22' W 079°55'0 0.0
2016-Jun-15 02:33N 09°22' W 079°55'0 0.0
2016-Jun-15 01:33N 09°22' W 079°55'0 0.0
2016-Jun-15 00:33N 09°22' W 079°55'0 0.0
2016-Jun-14 23:33N 09°22' W 079°55'0 0.0
2016-Jun-14 22:33N 09°22' W 079°55'0 0.0
2016-Jun-14 21:33N 09°22' W 079°55'0 0.0
2016-Jun-14 20:33N 09°22' W 079°55'0 0.0
2016-Jun-14 19:33N 09°22' W 079°54'0 0.0
2016-Jun-14 18:33N 09°22' W 079°54'0 0.0
2016-Jun-14 17:34N 09°22' W 079°54'0 0.0
2016-Jun-14 16:33N 09°22' W 079°54'0 0.0
2016-Jun-14 15:33N 09°22' W 079°55'0 0.0
2016-Jun-14 14:33N 09°22' W 079°54'0 0.0
2016-Jun-14 13:33N 09°22' W 079°54'0 0.0
2016-Jun-14 12:33N 09°22' W 079°54'0 0.0
2016-Jun-14 11:33N 09°22' W 079°54'0 0.0
2016-Jun-14 10:33N 09°22' W 079°55'0 0.0
2016-Jun-14 09:33N 09°22' W 079°55'0 0.0
2016-Jun-14 08:33N 09°22' W 079°55'0 0.0
2016-Jun-14 07:33N 09°22' W 079°54'0 0.0
2016-Jun-14 05:33N 09°22' W 079°54'0 0.0
2016-Jun-14 04:33N 09°22' W 079°54'0 0.0
2016-Jun-14 03:33N 09°22' W 079°54'0 0.0
2016-Jun-14 02:33N 09°22' W 079°54'0 0.0
2016-Jun-14 01:33N 09°22' W 079°54'0 0.0
2016-Jun-14 00:33N 09°22' W 079°54'0 0.0
2016-Jun-13 23:33N 09°22' W 079°54'0 0.0
2016-Jun-13 22:33N 09°22' W 079°54'0 0.0
2016-Jun-13 21:33N 09°22' W 079°54'0 0.0
2016-Jun-13 20:33N 09°22' W 079°54'0 0.0
2016-Jun-13 19:33N 09°22' W 079°55'0 0.0
2016-Jun-13 18:33N 09°22' W 079°55'0 0.0
2016-Jun-13 17:33N 09°22' W 079°55'0 0.0
2016-Jun-13 16:33N 09°22' W 079°55'0 0.0
2016-Jun-13 15:33N 09°22' W 079°55'0 0.0
2016-Jun-13 14:33N 09°22' W 079°55'0 0.0
2016-Jun-13 13:33N 09°22' W 079°55'0 0.0
2016-Jun-13 12:33N 09°22' W 079°55'0 0.0
2016-Jun-13 11:33N 09°22' W 079°55'0 0.0
2016-Jun-13 10:33N 09°22' W 079°55'0 0.0
2016-Jun-13 09:33N 09°22' W 079°55'0 0.0
2016-Jun-13 08:33N 09°22' W 079°55'0 0.0
2016-Jun-13 07:33N 09°22' W 079°55'0 0.0
2016-Jun-13 06:33N 09°22' W 079°55'0 0.0
2016-Jun-13 05:33N 09°22' W 079°55'0 0.0
2016-Jun-13 04:34N 09°22' W 079°55'0 0.0
2016-Jun-13 03:34N 09°22' W 079°55'0 0.0
2016-Jun-13 02:34N 09°22' W 079°55'0 0.0
2016-Jun-13 01:34N 09°22' W 079°55'0 0.0
2016-Jun-13 00:33N 09°22' W 079°55'0 0.0
2016-Jun-12 23:34N 09°22' W 079°55'0 0.0
2016-Jun-12 22:34N 09°22' W 079°55'0 0.0
2016-Jun-12 21:34N 09°22' W 079°55'0 0.0
2016-Jun-12 20:33N 09°22' W 079°55'0 0.0
2016-Jun-12 19:33N 09°22' W 079°55'0 0.0
2016-Jun-12 18:34N 09°22' W 079°55'0 0.0
2016-Jun-12 17:34N 09°22' W 079°55'0 0.0
2016-Jun-12 16:34N 09°22' W 079°55'0 0.0
2016-Jun-12 15:33N 09°22' W 079°55'0 0.0
2016-Jun-12 14:33N 09°22' W 079°55'0 0.0
2016-Jun-12 13:33N 09°22' W 079°55'0 0.0
2016-Jun-12 12:34N 09°22' W 079°55'0 0.0
2016-Jun-12 11:33N 09°22' W 079°55'0 0.0
2016-Jun-12 10:33N 09°22' W 079°55'0 0.0
2016-Jun-12 09:34N 09°22' W 079°55'0 0.0
2016-Jun-12 08:34N 09°22' W 079°55'0 0.0
2016-Jun-12 07:34N 09°22' W 079°55'0 0.0
2016-Jun-12 06:34N 09°22' W 079°55'0 0.0
2016-Jun-12 04:34N 09°22' W 079°55'0 0.0
2016-Jun-12 03:33N 09°22' W 079°54'0 0.0
2016-Jun-12 02:34N 09°22' W 079°55'0 0.0
2016-Jun-12 01:34N 09°22' W 079°55'0 0.0
2016-Jun-12 00:33N 09°22' W 079°55'0 0.0
2016-Jun-11 23:34N 09°22' W 079°55'0 0.0
2016-Jun-11 22:34N 09°22' W 079°55'0 0.0
2016-Jun-11 21:34N 09°22' W 079°55'0 0.0
2016-Jun-11 20:34N 09°22' W 079°55'0 0.0
2016-Jun-11 19:34N 09°22' W 079°55'0 0.0
2016-Jun-11 18:33N 09°22' W 079°55'0 0.0
2016-Jun-11 17:33N 09°22' W 079°54'0 0.0
2016-Jun-11 16:33N 09°22' W 079°55'0 0.1
2016-Jun-11 15:34N 09°22' W 079°55'5 5.3
2016-Jun-11 14:34N 09°28' W 079°53'8 7.8
2016-Jun-11 13:33N 09°35' W 079°51'7 7.3
2016-Jun-11 12:33N 09°42' W 079°48'6 6.3
2016-Jun-11 11:33N 09°47' W 079°45'6 5.7
2016-Jun-11 10:33N 09°50' W 079°40'  
Track history (hours):
 
Tides and Currents Weather Stations Pressure Air Temp Water Temp Dewpoint Dewpoint Depression Visibility Wind Speed Wind Dir Waves Ship Positions

Runo

Last reported at 2016-Jun-16 01:26 UTC. Time now 2016-Jun-25 05:21 UTC.
Position N 09°07' W 079°47'.
Warning: this ship's position is 9 days out of date.

Length 30 m; draft 4 m.

Type: Fishing. MMSI: 224544160.

Date/timePositionNaut miles runAvg speedWind from/ knotsBaromVisibWave heightAir tempDewpointWater temp
2016-Jun-16 01:26N 09°07' W 079°47'7 8.4
2016-Jun-16 00:33N 09°11' W 079°53'6 5.8
2016-Jun-15 23:33N 09°16' W 079°55'0 0.4
2016-Jun-15 22:33N 09°17' W 079°55'2 2.2
2016-Jun-15 21:33N 09°19' W 079°55'4 3.6
2016-Jun-15 20:33N 09°22' W 079°54'0 0.0
2016-Jun-15 19:33N 09°22' W 079°54'0 0.0
2016-Jun-15 18:33N 09°22' W 079°54'0 0.0
2016-Jun-15 17:33N 09°22' W 079°54'0 0.0
2016-Jun-15 16:33N 09°22' W 079°54'0 0.0
2016-Jun-15 15:33N 09°22' W 079°54'0 0.0
2016-Jun-15 14:33N 09°22' W 079°54'0 0.0
2016-Jun-15 13:33N 09°22' W 079°55'0 0.0
2016-Jun-15 12:33N 09°22' W 079°55'0 0.0
2016-Jun-15 11:33N 09°22' W 079°54'0 0.0
2016-Jun-15 10:33N 09°22' W 079°54'0 0.0
2016-Jun-15 09:33N 09°22' W 079°55'0 0.0
2016-Jun-15 08:33N 09°22' W 079°54'0 0.0
2016-Jun-15 07:33N 09°22' W 079°54'0 0.0
2016-Jun-15 06:33N 09°22' W 079°55'0 0.0
2016-Jun-15 05:33N 09°22' W 079°55'0 0.0
2016-Jun-15 04:33N 09°22' W 079°54'0 0.0
2016-Jun-15 03:33N 09°22' W 079°55'0 0.0
2016-Jun-15 02:33N 09°22' W 079°55'0 0.0
2016-Jun-15 01:33N 09°22' W 079°55'0 0.0
2016-Jun-15 00:33N 09°22' W 079°55'0 0.0
2016-Jun-14 23:33N 09°22' W 079°55'0 0.0
2016-Jun-14 22:33N 09°22' W 079°55'0 0.0
2016-Jun-14 21:33N 09°22' W 079°55'0 0.0
2016-Jun-14 20:33N 09°22' W 079°55'0 0.0
2016-Jun-14 19:33N 09°22' W 079°54'0 0.0
2016-Jun-14 18:33N 09°22' W 079°54'0 0.0
2016-Jun-14 17:34N 09°22' W 079°54'0 0.0
2016-Jun-14 16:33N 09°22' W 079°54'0 0.0
2016-Jun-14 15:33N 09°22' W 079°55'0 0.0
2016-Jun-14 14:33N 09°22' W 079°54'0 0.0
2016-Jun-14 13:33N 09°22' W 079°54'0 0.0
2016-Jun-14 12:33N 09°22' W 079°54'0 0.0
2016-Jun-14 11:33N 09°22' W 079°54'0 0.0
2016-Jun-14 10:33N 09°22' W 079°55'0 0.0
2016-Jun-14 09:33N 09°22' W 079°55'0 0.0
2016-Jun-14 08:33N 09°22' W 079°55'0 0.0
2016-Jun-14 07:33N 09°22' W 079°54'0 0.0
2016-Jun-14 05:33N 09°22' W 079°54'0 0.0
2016-Jun-14 04:33N 09°22' W 079°54'0 0.0
2016-Jun-14 03:33N 09°22' W 079°54'0 0.0
2016-Jun-14 02:33N 09°22' W 079°54'0 0.0
2016-Jun-14 01:33N 09°22' W 079°54'0 0.0
2016-Jun-14 00:33N 09°22' W 079°54'0 0.0
2016-Jun-13 23:33N 09°22' W 079°54'0 0.0
2016-Jun-13 22:33N 09°22' W 079°54'0 0.0
2016-Jun-13 21:33N 09°22' W 079°54'0 0.0
2016-Jun-13 20:33N 09°22' W 079°54'0 0.0
2016-Jun-13 19:33N 09°22' W 079°55'0 0.0
2016-Jun-13 18:33N 09°22' W 079°55'0 0.0
2016-Jun-13 17:33N 09°22' W 079°55'0 0.0
2016-Jun-13 16:33N 09°22' W 079°55'0 0.0
2016-Jun-13 15:33N 09°22' W 079°55'0 0.0
2016-Jun-13 14:33N 09°22' W 079°55'0 0.0
2016-Jun-13 13:33N 09°22' W 079°55'0 0.0
2016-Jun-13 12:33N 09°22' W 079°55'0 0.0
2016-Jun-13 11:33N 09°22' W 079°55'0 0.0
2016-Jun-13 10:33N 09°22' W 079°55'0 0.0
2016-Jun-13 09:33N 09°22' W 079°55'0 0.0
2016-Jun-13 08:33N 09°22' W 079°55'0 0.0
2016-Jun-13 07:33N 09°22' W 079°55'0 0.0
2016-Jun-13 06:33N 09°22' W 079°55'0 0.0
2016-Jun-13 05:33N 09°22' W 079°55'0 0.0
2016-Jun-13 04:34N 09°22' W 079°55'0 0.0
2016-Jun-13 03:34N 09°22' W 079°55'0 0.0
2016-Jun-13 02:34N 09°22' W 079°55'0 0.0
2016-Jun-13 01:34N 09°22' W 079°55'0 0.0
2016-Jun-13 00:33N 09°22' W 079°55'0 0.0
2016-Jun-12 23:34N 09°22' W 079°55'0 0.0
2016-Jun-12 22:34N 09°22' W 079°55'0 0.0
2016-Jun-12 21:34N 09°22' W 079°55'0 0.0
2016-Jun-12 20:33N 09°22' W 079°55'0 0.0
2016-Jun-12 19:33N 09°22' W 079°55'0 0.0
2016-Jun-12 18:34N 09°22' W 079°55'0 0.0
2016-Jun-12 17:34N 09°22' W 079°55'0 0.0
2016-Jun-12 16:34N 09°22' W 079°55'0 0.0
2016-Jun-12 15:33N 09°22' W 079°55'0 0.0
2016-Jun-12 14:33N 09°22' W 079°55'0 0.0
2016-Jun-12 13:33N 09°22' W 079°55'0 0.0
2016-Jun-12 12:34N 09°22' W 079°55'0 0.0
2016-Jun-12 11:33N 09°22' W 079°55'0 0.0
2016-Jun-12 10:33N 09°22' W 079°55'0 0.0
2016-Jun-12 09:34N 09°22' W 079°55'0 0.0
2016-Jun-12 08:34N 09°22' W 079°55'0 0.0
2016-Jun-12 07:34N 09°22' W 079°55'0 0.0
2016-Jun-12 06:34N 09°22' W 079°55'0 0.0
2016-Jun-12 04:34N 09°22' W 079°55'0 0.0
2016-Jun-12 03:33N 09°22' W 079°54'0 0.0
2016-Jun-12 02:34N 09°22' W 079°55'0 0.0
2016-Jun-12 01:34N 09°22' W 079°55'0 0.0
2016-Jun-12 00:33N 09°22' W 079°55'0 0.0
2016-Jun-11 23:34N 09°22' W 079°55'0 0.0
2016-Jun-11 22:34N 09°22' W 079°55'0 0.0
2016-Jun-11 21:34N 09°22' W 079°55'0 0.0
2016-Jun-11 20:34N 09°22' W 079°55'0 0.0
2016-Jun-11 19:34N 09°22' W 079°55'0 0.0
2016-Jun-11 18:33N 09°22' W 079°55'0 0.0
2016-Jun-11 17:33N 09°22' W 079°54'0 0.0
2016-Jun-11 16:33N 09°22' W 079°55'0 0.1
2016-Jun-11 15:34N 09°22' W 079°55'5 5.3
2016-Jun-11 14:34N 09°28' W 079°53'8 7.8
2016-Jun-11 13:33N 09°35' W 079°51'7 7.3
2016-Jun-11 12:33N 09°42' W 079°48'6 6.3
2016-Jun-11 11:33N 09°47' W 079°45'6 5.7
2016-Jun-11 10:33N 09°50' W 079°40'  

Dump ship's entire track history